createdAt,value
2024-04-11T00:00:25.030Z,70.27
2024-04-11T00:01:25.331Z,70.13
2024-04-11T00:02:25.119Z,70.13
2024-04-11T00:03:25.046Z,70.17
2024-04-11T00:04:25.023Z,70.15
2024-04-11T00:05:24.924Z,70.23
2024-04-11T00:06:24.815Z,70.17
2024-04-11T00:07:24.755Z,70.14
2024-04-11T00:08:24.738Z,70.19
2024-04-11T00:09:24.693Z,70.16
2024-04-11T00:10:24.639Z,70.13
2024-04-11T00:11:24.667Z,69.97
2024-04-11T00:12:24.688Z,69.73
2024-04-11T00:13:24.631Z,69.72
2024-04-11T00:14:24.714Z,69.80
2024-04-11T00:15:24.644Z,70.16
2024-04-11T00:16:24.705Z,70.30
2024-04-11T00:17:24.757Z,70.34
2024-04-11T00:18:24.970Z,70.61
2024-04-11T00:19:24.703Z,70.77
2024-04-11T00:20:24.754Z,70.78
2024-04-11T00:21:24.684Z,70.50
2024-04-11T00:22:24.727Z,70.32
2024-04-11T00:23:24.821Z,70.09
2024-04-11T00:24:24.729Z,69.97
2024-04-11T00:25:24.702Z,69.89
2024-04-11T00:26:24.750Z,69.90
2024-04-11T00:27:24.671Z,69.86
2024-04-11T00:28:24.647Z,69.88
2024-04-11T00:29:24.703Z,70.05
2024-04-11T00:30:24.583Z,69.96
2024-04-11T00:31:24.511Z,70.07
2024-04-11T00:32:24.772Z,70.24
2024-04-11T00:33:24.693Z,70.10
2024-04-11T00:34:24.560Z,69.90
2024-04-11T00:35:24.390Z,69.80
2024-04-11T00:36:24.298Z,69.64
2024-04-11T00:37:24.247Z,69.56
2024-04-11T00:38:24.230Z,69.58
2024-04-11T00:39:24.173Z,69.53
2024-04-11T00:40:24.131Z,69.45
2024-04-11T00:41:24.142Z,69.36
2024-04-11T00:42:24.053Z,69.16
2024-04-11T00:43:24.011Z,69.25
2024-04-11T00:44:24.000Z,69.02
2024-04-11T00:46:26.813Z,69.25
2024-04-11T00:47:27.941Z,69.15
2024-04-11T00:48:27.937Z,69.23
2024-04-11T00:49:27.884Z,69.40
2024-04-11T00:50:27.877Z,69.27
2024-04-11T00:51:27.835Z,69.05
2024-04-11T00:52:27.838Z,69.13
2024-04-11T00:53:27.930Z,69.14
2024-04-11T00:54:27.868Z,69.36
2024-04-11T00:55:27.905Z,69.28
2024-04-11T00:56:27.895Z,69.15
2024-04-11T00:57:27.928Z,69.00
2024-04-11T00:58:27.879Z,68.91
2024-04-11T00:59:27.930Z,68.72
2024-04-11T01:00:27.892Z,68.58
2024-04-11T01:01:27.884Z,68.59
2024-04-11T01:02:27.967Z,68.97
2024-04-11T01:03:28.144Z,69.06
2024-04-11T01:04:27.908Z,69.28
2024-04-11T01:05:27.917Z,69.58
2024-04-11T01:06:27.861Z,69.54
2024-04-11T01:07:27.868Z,69.25
2024-04-11T01:08:27.906Z,68.86
2024-04-11T01:09:27.871Z,68.73
2024-04-11T01:10:27.869Z,68.51
2024-04-11T01:11:27.934Z,68.30
2024-04-11T01:12:27.889Z,68.13
2024-04-11T01:13:27.917Z,67.93
2024-04-11T01:14:27.945Z,67.72
2024-04-11T01:15:27.894Z,67.57
2024-04-11T01:16:27.916Z,67.49
2024-04-11T01:17:28.101Z,67.63
2024-04-11T01:18:27.976Z,68.15
2024-04-11T01:19:27.954Z,68.34
2024-04-11T01:20:27.940Z,68.30
2024-04-11T01:21:27.944Z,68.27
2024-04-11T01:22:27.915Z,68.07
2024-04-11T01:23:27.944Z,67.85
2024-04-11T01:24:27.950Z,67.63
2024-04-11T01:25:27.940Z,67.46
2024-04-11T01:26:27.966Z,67.25
2024-04-11T01:27:27.940Z,67.17
2024-04-11T01:28:27.947Z,67.12
2024-04-11T01:29:27.990Z,67.13
2024-04-11T01:30:27.961Z,67.19
2024-04-11T01:31:27.995Z,67.33
2024-04-11T01:32:28.149Z,67.14
2024-04-11T01:33:28.271Z,67.00
2024-04-11T01:34:28.309Z,66.97
2024-04-11T01:35:28.208Z,66.93
2024-04-11T01:36:28.234Z,66.90
2024-04-11T01:37:28.312Z,67.14
2024-04-11T01:38:28.443Z,67.60
2024-04-11T01:39:28.441Z,67.74
2024-04-11T01:40:28.515Z,67.68
2024-04-11T01:41:28.603Z,67.59
2024-04-11T01:42:28.653Z,67.59
2024-04-11T01:43:28.740Z,67.56
2024-04-11T01:44:28.850Z,67.53
2024-04-11T01:45:28.874Z,67.28
2024-04-11T01:46:29.066Z,66.37
2024-04-11T01:47:29.071Z,66.01
2024-04-11T01:48:29.160Z,64.92
2024-04-11T01:49:29.090Z,64.78
2024-04-11T01:50:29.146Z,65.23
2024-04-11T01:51:29.124Z,64.94
2024-04-11T01:52:29.168Z,64.23
2024-04-11T01:53:29.229Z,64.04
2024-04-11T01:54:29.231Z,63.97
2024-04-11T01:55:29.283Z,63.94
2024-04-11T01:56:29.340Z,63.88
2024-04-11T01:57:29.395Z,63.94
2024-04-11T01:58:29.400Z,64.14
2024-04-11T01:59:29.417Z,64.19
2024-04-11T02:00:29.414Z,64.27
2024-04-11T02:01:29.442Z,64.33
2024-04-11T02:02:29.503Z,64.30
2024-04-11T02:03:29.633Z,64.21
2024-04-11T02:04:29.601Z,64.12
2024-04-11T02:05:29.486Z,64.28
2024-04-11T02:06:29.501Z,64.51
2024-04-11T02:07:29.484Z,64.34
2024-04-11T02:08:29.538Z,64.47
2024-04-11T02:09:29.518Z,64.71
2024-04-11T02:10:29.520Z,64.37
2024-04-11T02:11:29.577Z,64.36
2024-04-11T02:12:29.657Z,64.31
2024-04-11T02:13:29.619Z,64.17
2024-04-11T02:14:29.676Z,63.98
2024-04-11T02:15:29.610Z,64.07
2024-04-11T02:16:29.655Z,63.90
2024-04-11T02:17:29.648Z,64.01
2024-04-11T02:18:29.696Z,63.84
2024-04-11T02:19:29.631Z,64.15
2024-04-11T02:20:29.699Z,64.11
2024-04-11T02:21:29.689Z,64.21
2024-04-11T02:22:29.679Z,64.06
2024-04-11T02:23:29.708Z,64.06
2024-04-11T02:24:29.691Z,64.05
2024-04-11T02:25:29.701Z,64.01
2024-04-11T02:26:29.755Z,63.98
2024-04-11T02:27:29.738Z,64.16
2024-04-11T02:28:29.761Z,63.99
2024-04-11T02:29:29.802Z,63.96
2024-04-11T02:30:29.815Z,64.16
2024-04-11T02:31:29.838Z,63.97
2024-04-11T02:32:29.916Z,63.89
2024-04-11T02:33:30.008Z,63.82
2024-04-11T02:34:30.055Z,63.79
2024-04-11T02:35:29.937Z,63.88
2024-04-11T02:36:29.906Z,63.90
2024-04-11T02:37:29.924Z,63.99
2024-04-11T02:38:29.962Z,64.11
2024-04-11T02:39:29.932Z,64.00
2024-04-11T02:40:29.988Z,63.95
2024-04-11T02:41:30.030Z,63.90
2024-04-11T02:42:30.036Z,63.88
2024-04-11T02:43:30.070Z,63.93
2024-04-11T02:44:30.169Z,63.86
2024-04-11T02:45:30.143Z,63.60
2024-04-11T02:46:30.199Z,63.60
2024-04-11T02:47:30.258Z,63.61
2024-04-11T02:48:30.397Z,63.55
2024-04-11T02:49:30.237Z,63.69
2024-04-11T02:50:30.288Z,63.52
2024-04-11T02:51:30.290Z,63.55
2024-04-11T02:52:30.321Z,63.50
2024-04-11T02:53:30.397Z,63.54
2024-04-11T02:54:30.371Z,63.55
2024-04-11T02:55:30.398Z,63.72
2024-04-11T02:56:30.434Z,63.64
2024-04-11T02:57:30.448Z,63.87
2024-04-11T02:58:30.495Z,63.76
2024-04-11T02:59:30.625Z,63.49
2024-04-11T03:00:30.690Z,63.54
2024-04-11T03:01:30.692Z,63.54
2024-04-11T03:02:31.021Z,63.63
2024-04-11T03:03:30.952Z,63.75
2024-04-11T03:04:31.013Z,63.90
2024-04-11T03:05:31.098Z,63.90
2024-04-11T03:06:31.037Z,63.99
2024-04-11T03:07:31.094Z,63.97
2024-04-11T03:08:31.163Z,63.95
2024-04-11T03:09:31.174Z,63.92
2024-04-11T03:10:31.218Z,63.77
2024-04-11T03:11:31.332Z,63.74
2024-04-11T03:12:31.300Z,63.75
2024-04-11T03:13:31.306Z,63.84
2024-04-11T03:14:31.376Z,63.98
2024-04-11T03:15:31.365Z,64.08
2024-04-11T03:16:31.701Z,64.05
2024-04-11T03:17:31.465Z,64.09
2024-04-11T03:18:33.593Z,63.94
2024-04-11T03:19:31.404Z,63.94
2024-04-11T03:20:31.413Z,64.00
2024-04-11T03:21:31.404Z,64.13
2024-04-11T03:22:31.417Z,64.60
2024-04-11T03:23:31.463Z,64.52
2024-04-11T03:24:31.420Z,64.46
2024-04-11T03:25:31.427Z,64.29
2024-04-11T03:26:31.494Z,64.38
2024-04-11T03:27:31.441Z,64.41
2024-04-11T03:28:31.456Z,64.55
2024-04-11T03:29:31.489Z,64.77
2024-04-11T03:30:31.491Z,64.98
2024-04-11T03:31:31.470Z,64.91
2024-04-11T03:32:31.659Z,64.84
2024-04-11T03:33:31.658Z,64.70
2024-04-11T03:34:31.529Z,64.72
2024-04-11T03:35:31.499Z,64.62
2024-04-11T03:36:31.481Z,64.58
2024-04-11T03:37:31.465Z,64.52
2024-04-11T03:38:31.507Z,64.62
2024-04-11T03:39:31.463Z,64.96
2024-04-11T03:40:31.462Z,65.35
2024-04-11T03:41:31.492Z,65.26
2024-04-11T03:42:31.478Z,65.27
2024-04-11T03:43:31.570Z,65.07
2024-04-11T03:44:31.492Z,64.93
2024-04-11T03:45:31.480Z,64.80
2024-04-11T03:46:31.467Z,65.23
2024-04-11T03:47:31.588Z,65.37
2024-04-11T03:48:31.589Z,65.29
2024-04-11T03:49:31.858Z,64.96
2024-04-11T03:50:31.524Z,64.91
2024-04-11T03:51:31.913Z,65.00
2024-04-11T03:52:31.495Z,65.10
2024-04-11T03:53:31.519Z,64.99
2024-04-11T03:54:31.520Z,64.98
2024-04-11T03:55:31.535Z,64.75
2024-04-11T03:56:31.670Z,64.71
2024-04-11T03:57:31.606Z,64.57
2024-04-11T03:58:31.601Z,64.93
2024-04-11T03:59:31.646Z,64.89
2024-04-11T04:00:31.623Z,64.82
2024-04-11T04:01:31.855Z,64.61
2024-04-11T04:02:31.773Z,64.31
2024-04-11T04:03:31.861Z,64.11
2024-04-11T04:04:31.795Z,64.16
2024-04-11T04:05:31.768Z,64.18
2024-04-11T04:06:31.730Z,64.16
2024-04-11T04:07:32.867Z,64.14
2024-04-11T04:08:31.813Z,64.24
2024-04-11T04:09:31.743Z,65.55
2024-04-11T04:10:31.743Z,64.74
2024-04-11T04:11:31.909Z,64.81
2024-04-11T04:12:31.888Z,64.59
2024-04-11T04:13:31.729Z,64.89
2024-04-11T04:14:33.306Z,64.86
2024-04-11T04:15:31.727Z,64.39
2024-04-11T04:16:31.882Z,64.06
2024-04-11T04:17:31.843Z,63.90
2024-04-11T04:18:31.840Z,63.82
2024-04-11T04:19:31.746Z,64.07
2024-04-11T04:20:31.782Z,63.90
2024-04-11T04:21:31.731Z,63.63
2024-04-11T04:22:31.757Z,63.53
2024-04-11T04:23:31.799Z,63.60
2024-04-11T04:24:31.741Z,63.44
2024-04-11T04:25:31.740Z,63.27
2024-04-11T04:26:31.868Z,63.25
2024-04-11T04:27:31.767Z,63.01
2024-04-11T04:28:31.805Z,62.75
2024-04-11T04:29:31.795Z,62.74
2024-04-11T04:30:31.774Z,62.80
2024-04-11T04:31:31.756Z,63.03
2024-04-11T04:32:31.904Z,63.21
2024-04-11T04:33:32.050Z,63.16
2024-04-11T04:34:31.896Z,62.88
2024-04-11T04:35:31.790Z,62.80
2024-04-11T04:36:31.768Z,62.85
2024-04-11T04:37:39.110Z,63.46
2024-04-11T04:38:40.178Z,64.35
2024-04-11T04:39:40.093Z,63.40
2024-04-11T04:40:40.183Z,63.31
2024-04-11T04:41:40.120Z,64.17
2024-04-11T04:42:40.112Z,63.97
2024-04-11T04:43:40.104Z,63.69
2024-04-11T04:44:40.147Z,63.78
2024-04-11T04:45:40.144Z,63.33
2024-04-11T04:46:40.120Z,63.11
2024-04-11T04:47:40.339Z,62.93
2024-04-11T04:48:40.380Z,62.82
2024-04-11T04:49:40.143Z,62.85
2024-04-11T04:50:42.028Z,62.59
2024-04-11T04:51:40.144Z,62.75
2024-04-11T04:52:40.141Z,62.79
2024-04-11T04:53:40.291Z,62.76
2024-04-11T04:54:40.147Z,62.54
2024-04-11T04:55:40.168Z,62.24
2024-04-11T04:56:40.187Z,62.45
2024-04-11T04:57:40.162Z,62.45
2024-04-11T04:58:40.173Z,62.45
2024-04-11T04:59:40.190Z,62.29
2024-04-11T05:00:40.271Z,62.06
2024-04-11T05:01:40.217Z,62.16
2024-04-11T05:02:40.325Z,62.27
2024-04-11T05:03:40.549Z,62.08
2024-04-11T05:04:40.263Z,62.25
2024-04-11T05:05:40.328Z,62.29
2024-04-11T05:06:40.261Z,62.75
2024-04-11T05:07:40.267Z,62.82
2024-04-11T05:08:40.282Z,62.67
2024-04-11T05:09:40.296Z,62.76
2024-04-11T05:10:40.330Z,62.74
2024-04-11T05:11:40.490Z,62.72
2024-04-11T05:12:40.398Z,62.66
2024-04-11T05:13:40.334Z,62.74
2024-04-11T05:14:40.488Z,62.58
2024-04-11T05:15:40.386Z,62.50
2024-04-11T05:16:40.403Z,62.56
2024-04-11T05:17:40.439Z,62.64
2024-04-11T05:18:40.437Z,62.63
2024-04-11T05:19:40.365Z,62.62
2024-04-11T05:20:40.395Z,62.47
2024-04-11T05:21:40.397Z,62.45
2024-04-11T05:22:40.389Z,62.81
2024-04-11T05:23:40.413Z,62.79
2024-04-11T05:24:40.419Z,62.67
2024-04-11T05:25:40.430Z,62.64
2024-04-11T05:26:40.469Z,62.51
2024-04-11T05:27:40.445Z,62.62
2024-04-11T05:28:41.525Z,62.61
2024-04-11T05:29:40.474Z,62.63
2024-04-11T05:30:40.450Z,62.57
2024-04-11T05:31:40.461Z,62.62
2024-04-11T05:32:40.551Z,62.35
2024-04-11T05:33:40.740Z,62.46
2024-04-11T05:34:40.616Z,62.57
2024-04-11T05:35:40.524Z,62.33
2024-04-11T05:36:40.470Z,62.30
2024-04-11T05:37:40.498Z,62.44
2024-04-11T05:38:40.504Z,62.45
2024-04-11T05:39:40.745Z,62.25
2024-04-11T05:40:40.564Z,62.59
2024-04-11T05:41:40.602Z,62.54
2024-04-11T05:42:40.602Z,61.96
2024-04-11T05:43:40.690Z,62.05
2024-04-11T05:44:40.767Z,61.77
2024-04-11T05:45:40.816Z,61.85
2024-04-11T05:46:40.925Z,62.01
2024-04-11T05:47:41.379Z,62.02
2024-04-11T05:48:41.020Z,61.39
2024-04-11T05:49:41.051Z,61.14
2024-04-11T05:50:41.131Z,61.31
2024-04-11T05:51:41.138Z,61.20
2024-04-11T05:52:41.167Z,61.30
2024-04-11T05:53:41.789Z,61.15
2024-04-11T05:54:41.272Z,61.13
2024-04-11T05:55:41.315Z,61.14
2024-04-11T05:56:41.423Z,61.08
2024-04-11T05:57:41.739Z,61.16
2024-04-11T05:58:41.462Z,60.94
2024-04-11T05:59:41.801Z,61.36
2024-04-11T06:00:42.078Z,62.20
2024-04-11T06:01:41.591Z,61.51
2024-04-11T06:02:41.680Z,61.24
2024-04-11T06:03:41.805Z,61.22
2024-04-11T06:04:41.745Z,60.98
2024-04-11T06:05:41.820Z,60.96
2024-04-11T06:06:44.945Z,61.01
2024-04-11T06:07:41.713Z,61.06
2024-04-11T06:08:41.704Z,60.88
2024-04-11T06:09:41.670Z,60.48
2024-04-11T06:10:41.670Z,60.36
2024-04-11T06:11:41.828Z,60.23
2024-04-11T06:12:41.830Z,59.98
2024-04-11T06:13:41.611Z,59.69
2024-04-11T06:14:41.767Z,59.65
2024-04-11T06:15:41.614Z,59.48
2024-04-11T06:16:41.653Z,59.43
2024-04-11T06:17:41.647Z,59.02
2024-04-11T06:18:42.706Z,58.64
2024-04-11T06:19:41.678Z,58.23
2024-04-11T06:20:41.829Z,58.07
2024-04-11T06:21:41.612Z,57.97
2024-04-11T06:22:41.628Z,57.99
2024-04-11T06:23:41.797Z,57.96
2024-04-11T06:24:41.746Z,57.61
2024-04-11T06:25:41.662Z,57.64
2024-04-11T06:26:41.748Z,57.69
2024-04-11T06:27:41.699Z,57.81
2024-04-11T06:28:42.020Z,57.56
2024-04-11T06:29:41.850Z,57.58
2024-04-11T06:31:41.810Z,57.70
2024-04-11T06:32:43.229Z,57.84
2024-04-11T06:33:42.522Z,57.86
2024-04-11T06:34:42.057Z,57.97
2024-04-11T06:35:41.793Z,58.15
2024-04-11T06:36:42.151Z,57.70
2024-04-11T06:37:41.768Z,57.70
2024-04-11T06:38:41.922Z,57.80
2024-04-11T06:39:41.826Z,57.77
2024-04-11T06:40:41.814Z,57.20
2024-04-11T06:41:41.767Z,56.92
2024-04-11T06:42:41.775Z,56.78
2024-04-11T06:43:41.799Z,56.67
2024-04-11T06:44:42.284Z,56.58
2024-04-11T06:45:41.776Z,56.64
2024-04-11T06:46:41.764Z,56.49
2024-04-11T06:47:48.052Z,56.52
2024-04-11T06:48:41.885Z,56.32
2024-04-11T06:49:44.536Z,56.31
2024-04-11T06:50:41.767Z,56.26
2024-04-11T06:51:41.685Z,56.38
2024-04-11T06:52:41.664Z,56.05
2024-04-11T06:53:41.774Z,55.99
2024-04-11T06:54:41.762Z,55.59
2024-04-11T06:55:41.614Z,55.82
2024-04-11T06:56:41.648Z,55.19
2024-04-11T06:57:41.562Z,55.19
2024-04-11T06:58:41.569Z,55.34
2024-04-11T06:59:41.830Z,55.08
2024-04-11T07:00:41.534Z,55.02
2024-04-11T07:01:43.807Z,54.74
2024-04-11T07:02:41.646Z,54.34
2024-04-11T07:03:42.205Z,54.05
2024-04-11T07:04:41.868Z,54.19
2024-04-11T07:05:41.492Z,54.27
2024-04-11T07:06:41.657Z,54.50
2024-04-11T07:07:41.588Z,54.50
2024-04-11T07:08:41.592Z,54.13
2024-04-11T07:09:41.583Z,54.35
2024-04-11T07:10:41.566Z,53.79
2024-04-11T07:11:41.820Z,53.89
2024-04-11T07:12:41.607Z,53.87
2024-04-11T07:13:41.533Z,53.79
2024-04-11T07:14:41.822Z,53.53
2024-04-11T07:15:41.534Z,53.18
2024-04-11T07:16:41.889Z,53.18
2024-04-11T07:17:41.553Z,52.90
2024-04-11T07:18:41.486Z,53.25
2024-04-11T07:19:41.496Z,53.16
2024-04-11T07:20:41.586Z,53.21
2024-04-11T07:21:41.464Z,53.73
2024-04-11T07:22:41.410Z,53.56
2024-04-11T07:23:41.444Z,53.36
2024-04-11T07:24:41.778Z,53.36
2024-04-11T07:25:41.403Z,53.54
2024-04-11T07:26:41.446Z,53.03
2024-04-11T07:27:41.427Z,52.68
2024-04-11T07:28:41.416Z,53.03
2024-04-11T07:29:41.417Z,53.35
2024-04-11T07:30:41.771Z,53.08
2024-04-11T07:31:41.815Z,52.58
2024-04-11T07:32:41.804Z,52.38
2024-04-11T07:33:41.795Z,52.25
2024-04-11T07:34:41.761Z,52.04
2024-04-11T07:35:41.551Z,52.08
2024-04-11T07:36:42.156Z,51.61
2024-04-11T07:37:41.644Z,51.47
2024-04-11T07:38:41.663Z,51.07
2024-04-11T07:39:41.586Z,50.97
2024-04-11T07:40:41.562Z,50.92
2024-04-11T07:41:41.661Z,50.68
2024-04-11T07:42:41.633Z,51.05
2024-04-11T07:43:41.633Z,50.81
2024-04-11T07:44:41.824Z,51.39
2024-04-11T07:45:41.694Z,51.02
2024-04-11T07:46:47.468Z,51.40
2024-04-11T07:47:50.219Z,51.18
2024-04-11T07:48:41.788Z,51.52
2024-04-11T07:49:42.252Z,51.85
2024-04-11T07:50:41.623Z,52.18
2024-04-11T07:51:41.552Z,51.71
2024-04-11T07:52:41.538Z,51.68
2024-04-11T07:53:41.545Z,51.74
2024-04-11T07:54:47.179Z,51.59
2024-04-11T07:55:41.788Z,51.61
2024-04-11T07:56:41.461Z,51.43
2024-04-11T07:57:41.414Z,51.39
2024-04-11T07:58:41.279Z,51.35
2024-04-11T07:59:42.314Z,51.01
2024-04-11T08:00:41.349Z,50.49
2024-04-11T08:01:41.170Z,50.44
2024-04-11T08:02:41.150Z,50.45
2024-04-11T08:03:41.091Z,50.45
2024-04-11T08:04:41.120Z,50.64
2024-04-11T08:05:41.303Z,50.75
2024-04-11T08:06:41.042Z,50.63
2024-04-11T08:07:40.977Z,50.52
2024-04-11T08:08:40.983Z,50.45
2024-04-11T08:09:41.002Z,50.23
2024-04-11T08:10:41.035Z,50.39
2024-04-11T08:11:41.103Z,50.40
2024-04-11T08:12:40.992Z,49.86
2024-04-11T08:13:43.447Z,50.27
2024-04-11T08:14:41.099Z,50.35
2024-04-11T08:15:40.928Z,49.40
2024-04-11T08:16:40.983Z,48.77
2024-04-11T08:17:40.962Z,48.84
2024-04-11T08:18:40.858Z,48.72
2024-04-11T08:19:47.966Z,49.27
2024-04-11T08:20:40.698Z,48.03
2024-04-11T08:21:40.659Z,48.06
2024-04-11T08:22:40.563Z,48.24
2024-04-11T08:23:40.612Z,48.12
2024-04-11T08:24:40.493Z,48.45
2024-04-11T08:25:40.456Z,48.99
2024-04-11T08:26:40.403Z,48.35
2024-04-11T08:27:40.351Z,48.03
2024-04-11T08:28:40.288Z,47.26
2024-04-11T08:29:40.271Z,47.03
2024-04-11T08:30:40.196Z,47.07
2024-04-11T08:31:40.287Z,46.18
2024-04-11T08:32:40.148Z,46.02
2024-04-11T08:33:40.160Z,45.83
2024-04-11T08:34:40.029Z,45.53
2024-04-11T08:35:40.019Z,45.29
2024-04-11T08:36:39.912Z,44.67
2024-04-11T08:37:39.843Z,43.98
2024-04-11T08:38:39.816Z,43.55
2024-04-11T08:39:39.759Z,43.21
2024-04-11T08:40:39.706Z,43.11
2024-04-11T08:41:39.894Z,43.44
2024-04-11T08:42:39.584Z,43.09
2024-04-11T08:43:42.729Z,43.12
2024-04-11T08:44:39.875Z,42.98
2024-04-11T08:45:39.455Z,43.07
2024-04-11T08:46:39.415Z,43.48
2024-04-11T08:47:39.345Z,43.46
2024-04-11T08:48:39.619Z,43.22
2024-04-11T08:49:39.488Z,43.30
2024-04-11T08:50:39.328Z,43.83
2024-04-11T08:51:41.983Z,43.66
2024-04-11T08:52:38.967Z,43.61
2024-04-11T08:53:51.535Z,44.13
2024-04-11T08:54:39.059Z,44.19
2024-04-11T08:55:38.783Z,44.19
2024-04-11T08:56:38.860Z,44.41
2024-04-11T08:57:38.657Z,44.62
2024-04-11T08:58:38.589Z,44.34
2024-04-11T08:59:38.679Z,43.90
2024-04-11T09:00:38.480Z,44.33
2024-04-11T09:01:38.482Z,44.80
2024-04-11T09:02:38.458Z,44.33
2024-04-11T09:03:38.405Z,43.90
2024-04-11T09:04:38.261Z,43.87
2024-04-11T09:05:38.255Z,44.06
2024-04-11T09:06:38.240Z,44.12
2024-04-11T09:07:39.226Z,44.14
2024-04-11T09:08:38.449Z,44.42
2024-04-11T09:09:37.977Z,45.39
2024-04-11T09:10:37.911Z,45.24
2024-04-11T09:11:38.013Z,44.96
2024-04-11T09:12:37.834Z,44.93
2024-04-11T09:13:37.838Z,45.08
2024-04-11T09:14:37.860Z,44.90
2024-04-11T09:15:37.869Z,44.33
2024-04-11T09:16:37.890Z,44.35
2024-04-11T09:17:37.933Z,44.12
2024-04-11T09:18:37.911Z,43.60
2024-04-11T09:19:37.787Z,43.67
2024-04-11T09:20:37.857Z,43.86
2024-04-11T09:21:38.308Z,43.44
2024-04-11T09:22:37.804Z,43.38
2024-04-11T09:23:37.797Z,44.04
2024-04-11T09:24:37.805Z,44.82
2024-04-11T09:25:37.795Z,44.86
2024-04-11T09:26:37.835Z,44.61
2024-04-11T09:27:37.799Z,44.46
2024-04-11T09:28:37.948Z,44.04
2024-04-11T09:29:37.830Z,43.81
2024-04-11T09:30:37.736Z,43.45
2024-04-11T09:31:38.464Z,43.50
2024-04-11T09:32:37.808Z,43.45
2024-04-11T09:33:37.815Z,43.39
2024-04-11T09:34:39.719Z,43.62
2024-04-11T09:35:37.697Z,44.01
2024-04-11T09:36:37.631Z,44.00
2024-04-11T09:37:37.542Z,43.93
2024-04-11T09:38:37.552Z,43.94
2024-04-11T09:39:37.801Z,43.97
2024-04-11T09:40:37.362Z,44.27
2024-04-11T09:41:38.049Z,44.44
2024-04-11T09:42:37.351Z,44.36
2024-04-11T09:43:37.169Z,44.14
2024-04-11T09:44:37.116Z,44.45
2024-04-11T09:45:37.043Z,44.91
2024-04-11T09:46:37.006Z,44.50
2024-04-11T09:47:37.374Z,44.40
2024-04-11T09:48:37.069Z,44.61
2024-04-11T09:49:36.821Z,44.71
2024-04-11T09:50:36.773Z,44.76
2024-04-11T09:51:36.702Z,44.48
2024-04-11T09:52:36.624Z,44.76
2024-04-11T09:53:36.632Z,45.07
2024-04-11T09:54:36.623Z,44.70
2024-04-11T09:55:36.550Z,44.18
2024-04-11T09:56:36.598Z,43.88
2024-04-11T09:57:36.539Z,42.94
2024-04-11T09:58:36.540Z,43.31
2024-04-11T09:59:36.833Z,43.60
2024-04-11T10:00:36.554Z,43.81
2024-04-11T10:01:36.534Z,42.43
2024-04-11T10:02:36.612Z,42.25
2024-04-11T10:03:36.626Z,42.40
2024-04-11T10:04:36.801Z,43.04
2024-04-11T10:05:36.535Z,43.40
2024-04-11T10:06:36.435Z,43.69
2024-04-11T10:07:36.373Z,43.85
2024-04-11T10:08:36.362Z,44.43
2024-04-11T10:09:36.301Z,44.00
2024-04-11T10:10:36.256Z,43.82
2024-04-11T10:11:36.312Z,44.28
2024-04-11T10:12:36.225Z,43.40
2024-04-11T10:13:36.153Z,43.26
2024-04-11T10:14:36.144Z,43.67
2024-04-11T10:15:36.658Z,43.26
2024-04-11T10:16:36.080Z,43.07
2024-04-11T10:17:36.156Z,42.95
2024-04-11T10:18:36.875Z,43.04
2024-04-11T10:19:36.173Z,43.16
2024-04-11T10:20:36.072Z,42.67
2024-04-11T10:21:41.395Z,42.86
2024-04-11T10:22:35.985Z,42.68
2024-04-11T10:23:35.912Z,42.74
2024-04-11T10:24:36.441Z,42.87
2024-04-11T10:25:35.822Z,43.31
2024-04-11T10:26:35.776Z,43.20
2024-04-11T10:27:36.574Z,43.60
2024-04-11T10:28:35.557Z,43.05
2024-04-11T10:29:35.528Z,42.56
2024-04-11T10:30:35.560Z,42.33
2024-04-11T10:31:35.350Z,42.29
2024-04-11T10:32:35.392Z,42.86
2024-04-11T10:33:35.553Z,42.70
2024-04-11T10:34:35.143Z,42.60
2024-04-11T10:35:35.107Z,42.74
2024-04-11T10:36:35.036Z,43.23
2024-04-11T10:37:35.513Z,43.15
2024-04-11T10:38:35.387Z,43.29
2024-04-11T10:39:34.763Z,43.42
2024-04-11T10:40:34.692Z,43.18
2024-04-11T10:41:34.656Z,44.01
2024-04-11T10:42:34.613Z,43.62
2024-04-11T10:43:34.624Z,43.94
2024-04-11T10:44:34.642Z,45.24
2024-04-11T10:45:34.631Z,44.84
2024-04-11T10:46:34.651Z,44.48
2024-04-11T10:47:34.725Z,44.38
2024-04-11T10:48:34.759Z,43.79
2024-04-11T10:49:34.573Z,45.19
2024-04-11T10:50:34.556Z,45.34
2024-04-11T10:51:34.556Z,45.11
2024-04-11T10:52:34.557Z,44.60
2024-04-11T10:53:34.557Z,44.83
2024-04-11T10:54:34.822Z,46.87
2024-04-11T10:55:34.476Z,48.07
2024-04-11T10:56:34.837Z,47.31
2024-04-11T10:57:34.476Z,47.08
2024-04-11T10:58:34.489Z,47.55
2024-04-11T10:59:34.532Z,48.42
2024-04-11T11:00:34.483Z,49.42
2024-04-11T11:01:35.695Z,47.17
2024-04-11T11:02:34.538Z,46.39
2024-04-11T11:03:34.605Z,46.54
2024-04-11T11:04:34.322Z,46.63
2024-04-11T11:05:34.307Z,46.21
2024-04-11T11:06:34.356Z,46.50
2024-04-11T11:07:34.148Z,47.05
2024-04-11T11:08:34.135Z,47.00
2024-04-11T11:09:34.037Z,46.83
2024-04-11T11:10:33.985Z,47.78
2024-04-11T11:11:34.003Z,47.85
2024-04-11T11:12:33.883Z,47.56
2024-04-11T11:13:33.810Z,47.03
2024-04-11T11:14:34.729Z,46.82
2024-04-11T11:15:33.731Z,46.30
2024-04-11T11:16:33.703Z,47.08
2024-04-11T11:17:33.698Z,46.83
2024-04-11T11:18:33.718Z,47.18
2024-04-11T11:19:33.536Z,48.36
2024-04-11T11:20:33.544Z,48.81
2024-04-11T11:21:33.436Z,47.51
2024-04-11T11:22:33.429Z,46.52
2024-04-11T11:23:33.400Z,46.77
2024-04-11T11:24:33.859Z,47.58
2024-04-11T11:25:33.314Z,47.19
2024-04-11T11:26:33.318Z,48.68
2024-04-11T11:27:33.842Z,47.79
2024-04-11T11:28:33.208Z,46.78
2024-04-11T11:29:33.260Z,46.65
2024-04-11T11:30:33.213Z,46.19
2024-04-11T11:31:33.196Z,45.97
2024-04-11T11:32:33.286Z,46.11
2024-04-11T11:33:33.191Z,47.12
2024-04-11T11:34:33.110Z,46.04
2024-04-11T11:35:33.111Z,46.52
2024-04-11T11:36:33.050Z,46.13
2024-04-11T11:37:33.044Z,46.24
2024-04-11T11:38:33.001Z,46.19
2024-04-11T11:39:33.357Z,46.31
2024-04-11T11:40:32.953Z,46.16
2024-04-11T11:41:32.989Z,46.61
2024-04-11T11:42:32.905Z,45.95
2024-04-11T11:43:32.859Z,45.96
2024-04-11T11:44:32.872Z,46.19
2024-04-11T11:45:32.872Z,46.90
2024-04-11T11:46:32.861Z,47.07
2024-04-11T11:47:33.520Z,46.38
2024-04-11T11:48:33.106Z,47.13
2024-04-11T11:49:32.915Z,46.67
2024-04-11T11:50:33.426Z,46.37
2024-04-11T11:51:32.848Z,46.79
2024-04-11T11:52:32.849Z,46.49
2024-04-11T11:53:33.011Z,46.54
2024-04-11T11:54:32.845Z,46.09
2024-04-11T11:55:33.344Z,45.84
2024-04-11T11:56:32.844Z,45.52
2024-04-11T11:57:32.837Z,45.77
2024-04-11T11:58:32.849Z,45.60
2024-04-11T11:59:32.830Z,45.36
2024-04-11T12:00:32.847Z,45.32
2024-04-11T12:01:32.859Z,45.78
2024-04-11T12:02:32.931Z,45.55
2024-04-11T12:03:35.181Z,44.79
2024-04-11T12:04:32.802Z,44.65
2024-04-11T12:05:32.742Z,46.81
2024-04-11T12:06:32.648Z,46.09
2024-04-11T12:07:32.585Z,45.52
2024-04-11T12:08:32.552Z,45.01
2024-04-11T12:09:32.466Z,44.70
2024-04-11T12:10:32.376Z,44.38
2024-04-11T12:11:32.474Z,44.28
2024-04-11T12:12:35.912Z,44.47
2024-04-11T12:13:32.157Z,44.45
2024-04-11T12:14:32.078Z,45.24
2024-04-11T12:15:32.001Z,45.29
2024-04-11T12:16:32.366Z,45.58
2024-04-11T12:17:31.920Z,45.55
2024-04-11T12:18:31.814Z,45.18
2024-04-11T12:19:31.722Z,45.49
2024-04-11T12:20:31.674Z,46.21
2024-04-11T12:21:31.853Z,45.92
2024-04-11T12:22:31.527Z,45.35
2024-04-11T12:23:31.476Z,46.21
2024-04-11T12:24:31.412Z,45.04
2024-04-11T12:25:31.374Z,44.62
2024-04-11T12:26:31.553Z,45.66
2024-04-11T12:27:31.253Z,44.81
2024-04-11T12:28:31.193Z,44.83
2024-04-11T12:29:31.428Z,44.75
2024-04-11T12:30:31.069Z,44.47
2024-04-11T12:31:31.024Z,43.60
2024-04-11T12:32:30.994Z,43.51
2024-04-11T12:33:30.983Z,44.30
2024-04-11T12:34:30.873Z,43.96
2024-04-11T12:35:30.743Z,45.08
2024-04-11T12:36:30.642Z,46.35
2024-04-11T12:37:30.597Z,44.43
2024-04-11T12:38:30.536Z,45.07
2024-04-11T12:39:30.526Z,45.73
2024-04-11T12:40:30.520Z,46.20
2024-04-11T12:41:30.880Z,45.44
2024-04-11T12:42:30.494Z,45.61
2024-04-11T12:43:30.493Z,44.35
2024-04-11T12:44:30.520Z,44.61
2024-04-11T12:45:30.891Z,44.26
2024-04-11T12:46:30.570Z,45.41
2024-04-11T12:47:31.611Z,43.94
2024-04-11T12:48:31.074Z,44.47
2024-04-11T12:49:31.060Z,44.64
2024-04-11T12:50:30.439Z,43.90
2024-04-11T12:51:30.398Z,43.54
2024-04-11T12:52:30.435Z,43.35
2024-04-11T12:53:30.392Z,43.13
2024-04-11T12:54:32.601Z,43.54